createdAt,value
2018-12-25T03:02:23.984Z,10.40
2018-12-25T03:04:53.246Z,9.27
2018-12-25T03:07:23.301Z,7.63
2018-12-25T03:09:53.997Z,9.20
2018-12-25T03:15:31.959Z,8.13
2018-12-25T03:18:01.230Z,9.70
2018-12-25T03:20:30.619Z,8.67
2018-12-25T03:22:59.903Z,8.40
2018-12-25T03:25:29.523Z,8.93
2018-12-25T03:27:58.842Z,8.30
2018-12-25T03:30:28.128Z,10.37
2018-12-25T03:32:57.409Z,8.30
2018-12-25T03:35:26.718Z,9.87
2018-12-25T03:37:56.371Z,8.20
2018-12-25T03:40:25.687Z,7.93
2018-12-25T03:42:54.967Z,10.37
2018-12-25T03:45:24.365Z,7.43
2018-12-25T03:47:53.663Z,7.73
2018-12-25T03:50:22.950Z,8.17
2018-12-25T03:52:52.260Z,9.87
2018-12-25T03:55:22.140Z,7.97
2018-12-25T03:57:51.425Z,8.30
2018-12-25T04:00:20.728Z,7.70
2018-12-25T04:02:50.004Z,9.47
2018-12-25T04:05:19.311Z,6.97
2018-12-25T04:07:48.626Z,6.80
2018-12-25T04:10:17.943Z,9.43
2018-12-25T04:12:47.219Z,9.57
2018-12-25T04:15:17.467Z,6.70
2018-12-25T04:17:46.793Z,8.30
2018-12-25T04:20:19.911Z,7.67
2018-12-25T04:22:47.076Z,7.10
2018-12-25T04:25:16.351Z,7.40
2018-12-25T04:27:45.643Z,7.80
2018-12-25T04:30:14.961Z,7.00
2018-12-25T04:32:44.267Z,7.17
2018-12-25T04:35:13.576Z,6.87
2018-12-25T04:37:43.448Z,6.30
2018-12-25T04:40:12.727Z,7.20
2018-12-25T04:42:42.014Z,9.30
2018-12-25T04:45:11.319Z,6.87
2018-12-25T04:47:40.590Z,6.77
2018-12-25T04:50:10.587Z,7.23
2018-12-25T04:52:39.877Z,8.37
2018-12-25T04:55:09.163Z,7.47
2018-12-25T04:57:38.770Z,7.27
2018-12-25T05:00:08.047Z,7.70
2018-12-25T05:02:37.341Z,6.47
2018-12-25T05:05:06.651Z,8.40
2018-12-25T05:07:35.976Z,8.03
2018-12-25T05:10:06.080Z,7.00
2018-12-25T05:12:35.362Z,7.87
2018-12-25T05:15:05.943Z,8.03
2018-12-25T05:17:35.223Z,6.73
2018-12-25T05:20:05.672Z,7.97
2018-12-25T05:22:35.649Z,6.23
2018-12-25T05:25:04.930Z,5.47
2018-12-25T05:27:34.251Z,6.90
2018-12-25T05:30:04.800Z,7.33
2018-12-25T05:32:34.116Z,7.30
2018-12-25T05:35:05.171Z,7.17
2018-12-25T05:37:34.556Z,7.10
2018-12-25T05:40:05.963Z,10.70
2018-12-25T05:42:35.259Z,6.23
2018-12-25T05:45:04.542Z,6.60
2018-12-25T05:47:33.824Z,5.77
2018-12-25T05:50:06.347Z,7.03
2018-12-25T05:52:35.619Z,8.87
2018-12-25T05:55:04.938Z,7.80
2018-12-25T05:57:34.216Z,8.67
2018-12-25T06:00:06.180Z,9.03
2018-12-25T06:02:35.468Z,6.50
2018-12-25T06:05:05.322Z,7.87
2018-12-25T06:07:34.634Z,10.97
2018-12-25T06:10:04.370Z,8.33
2018-12-25T06:12:33.687Z,8.37
2018-12-25T06:15:04.216Z,8.40
2018-12-25T06:17:33.820Z,8.53
2018-12-25T06:20:05.406Z,7.60
2018-12-25T06:22:34.718Z,7.47
2018-12-25T06:25:04.032Z,7.60
2018-12-25T06:27:33.299Z,7.33
2018-12-25T06:30:02.766Z,7.43
2018-12-25T06:32:32.040Z,7.27
2018-12-25T06:35:03.219Z,7.80
2018-12-25T06:37:32.491Z,9.73
2018-12-25T06:40:03.245Z,7.50
2018-12-25T06:42:32.533Z,8.17
2018-12-25T06:45:01.817Z,7.43
2018-12-25T06:47:31.127Z,8.80
2018-12-25T06:50:00.395Z,9.27
2018-12-25T06:52:30.808Z,9.30
2018-12-25T06:55:00.087Z,6.93
2018-12-25T06:57:30.950Z,6.77
2018-12-25T07:00:00.275Z,9.73
2018-12-25T07:02:29.604Z,11.23
2018-12-25T07:04:58.914Z,9.67
2018-12-25T07:07:28.187Z,10.27
2018-12-25T07:09:57.480Z,10.97
2018-12-25T07:12:26.846Z,12.73
2018-12-25T07:14:56.409Z,11.77
2018-12-25T07:17:25.927Z,11.90
2018-12-25T07:19:55.212Z,10.93
2018-12-25T07:22:24.526Z,9.07
2018-12-25T07:24:53.805Z,7.73
2018-12-25T07:27:23.427Z,10.83
2018-12-25T07:29:52.755Z,7.87
2018-12-25T07:32:22.018Z,7.70
2018-12-25T07:34:51.341Z,10.10
2018-12-25T07:37:20.628Z,9.53
2018-12-25T07:39:49.929Z,8.10
2018-12-25T07:42:19.202Z,9.73
2018-12-25T07:44:48.486Z,7.53
2018-12-25T07:47:17.801Z,12.53
2018-12-25T07:49:47.077Z,7.90
2018-12-25T07:52:16.386Z,12.00
2018-12-25T07:54:45.660Z,9.40
2018-12-25T07:57:14.936Z,6.83
2018-12-25T07:59:44.259Z,7.43
2018-12-25T08:02:13.564Z,7.77
2018-12-25T08:04:42.839Z,7.87
2018-12-25T08:07:12.202Z,7.33
2018-12-25T08:10:00.851Z,7.03
2018-12-25T08:12:30.234Z,8.90
2018-12-25T08:14:59.475Z,7.70
2018-12-25T08:17:28.760Z,11.10
2018-12-25T08:19:58.072Z,8.43
2018-12-25T08:22:27.350Z,9.23
2018-12-25T08:24:56.645Z,8.07
2018-12-25T08:27:26.505Z,7.25
2018-12-25T08:29:55.787Z,7.23
2018-12-25T08:32:25.404Z,7.17
2018-12-25T08:34:54.675Z,6.20
2018-12-25T08:37:24.242Z,7.23
2018-12-25T08:39:53.504Z,9.07
2018-12-25T08:42:22.814Z,6.80
2018-12-25T08:44:52.171Z,6.67
2018-12-25T08:47:21.377Z,6.40
2018-12-25T08:49:50.698Z,7.10
2018-12-25T08:52:19.987Z,8.67
2018-12-25T08:54:49.319Z,7.57
2018-12-25T08:57:18.602Z,8.20
2018-12-25T08:59:47.931Z,7.77
2018-12-25T09:02:17.192Z,8.67
2018-12-25T09:04:46.467Z,8.03
2018-12-25T09:07:15.783Z,10.77
2018-12-25T09:09:46.145Z,6.90
2018-12-25T09:12:15.478Z,8.73
2018-12-25T09:14:44.770Z,7.63
2018-12-25T09:17:14.056Z,7.87
2018-12-25T09:19:43.368Z,8.50
2018-12-25T09:22:12.646Z,9.17
2018-12-25T09:24:41.926Z,8.20
2018-12-25T09:27:11.254Z,6.87
2018-12-25T09:29:40.594Z,6.83
2018-12-25T09:32:09.919Z,6.60
2018-12-25T09:34:39.280Z,7.87
2018-12-25T09:37:08.596Z,12.20
2018-12-25T09:39:37.875Z,6.50
2018-12-25T09:42:07.508Z,6.83
2018-12-25T09:44:36.947Z,8.43
2018-12-25T09:47:06.212Z,6.67
2018-12-25T09:49:35.490Z,6.83
2018-12-25T09:52:05.223Z,9.00
2018-12-25T09:54:35.070Z,7.60
2018-12-25T09:57:05.074Z,9.43
2018-12-25T09:59:34.343Z,8.73
2018-12-25T10:02:03.815Z,7.77
2018-12-25T10:04:34.390Z,6.20
2018-12-25T10:07:05.042Z,7.10
2018-12-25T10:09:34.339Z,9.07
2018-12-25T10:12:04.374Z,8.10
2018-12-25T10:14:33.701Z,7.83
2018-12-25T10:17:03.018Z,7.20
2018-12-25T10:19:32.337Z,6.37
2018-12-25T10:22:03.237Z,8.57
2018-12-25T10:24:32.538Z,7.60
2018-12-25T10:27:03.657Z,6.30
2018-12-25T10:29:32.983Z,7.17
2018-12-25T10:32:02.249Z,7.07
2018-12-25T10:34:31.602Z,6.87
2018-12-25T10:37:00.859Z,7.83
2018-12-25T10:39:31.422Z,6.70
2018-12-25T10:42:00.696Z,7.43
2018-12-25T10:44:31.445Z,6.43
2018-12-25T10:47:00.763Z,7.37
2018-12-25T10:49:30.825Z,11.27
2018-12-25T10:52:00.649Z,8.20
2018-12-25T10:54:31.671Z,8.33
2018-12-25T10:57:00.947Z,7.10
2018-12-25T10:59:30.219Z,7.00
2018-12-25T11:01:59.614Z,7.50
2018-12-25T11:04:29.429Z,6.63
2018-12-25T11:06:58.722Z,7.27
2018-12-25T11:09:28.035Z,6.57
2018-12-25T11:11:57.405Z,6.33
2018-12-25T11:14:26.688Z,6.80
2018-12-25T11:16:55.996Z,6.07
2018-12-25T11:19:25.283Z,5.97
2018-12-25T11:21:54.568Z,7.63
2018-12-25T11:24:23.918Z,6.97
2018-12-25T11:26:53.156Z,6.83
2018-12-25T11:29:22.442Z,5.73
2018-12-25T11:31:52.088Z,5.53
2018-12-25T11:34:21.360Z,5.37
2018-12-25T11:36:50.731Z,4.87
2018-12-25T11:39:20.043Z,7.10
2018-12-25T11:41:49.323Z,5.13
2018-12-25T11:44:18.654Z,5.13
2018-12-25T11:46:47.924Z,4.90
2018-12-25T11:49:17.223Z,5.80
2018-12-25T11:51:46.561Z,4.60
2018-12-25T11:54:15.863Z,5.13
2018-12-25T11:56:45.127Z,5.47
2018-12-25T11:59:14.455Z,4.80
2018-12-25T12:01:43.760Z,5.83
2018-12-25T12:04:13.176Z,6.83
2018-12-25T12:06:42.498Z,5.30
2018-12-25T12:09:11.777Z,6.07
2018-12-25T12:11:41.046Z,4.63
2018-12-25T12:14:10.381Z,6.80
2018-12-25T12:16:39.660Z,4.67
2018-12-25T12:19:08.934Z,5.47
2018-12-25T12:21:39.230Z,4.87
2018-12-25T12:24:08.503Z,8.03
2018-12-25T12:26:37.786Z,6.40
2018-12-25T12:29:07.108Z,7.87
2018-12-25T12:31:36.453Z,5.47
2018-12-25T12:34:07.385Z,7.40
2018-12-25T12:36:36.625Z,6.80
2018-12-25T12:39:06.902Z,4.73
2018-12-25T12:41:36.176Z,5.27
2018-12-25T12:44:05.446Z,4.70
2018-12-25T12:46:34.787Z,5.40
2018-12-25T12:49:04.146Z,7.37
2018-12-25T12:51:34.565Z,6.37
2018-12-25T12:54:04.440Z,5.67
2018-12-25T12:56:33.763Z,4.37
2018-12-25T12:59:03.112Z,3.60
2018-12-25T13:01:32.401Z,7.87
2018-12-25T13:04:05.270Z,4.60
2018-12-25T13:06:34.605Z,5.00
2018-12-25T13:09:06.021Z,4.47
2018-12-25T13:11:35.374Z,4.63
2018-12-25T13:14:04.686Z,4.93
2018-12-25T13:16:33.978Z,3.37
2018-12-25T13:19:03.528Z,2.50
2018-12-25T13:21:33.300Z,5.93
2018-12-25T13:24:03.701Z,3.67
2018-12-25T13:26:33.041Z,2.80
2018-12-25T13:29:02.319Z,3.47
2018-12-25T13:31:31.640Z,3.40
2018-12-25T13:34:03.159Z,3.57
2018-12-25T13:36:32.517Z,3.20
2018-12-25T13:39:02.168Z,2.77
2018-12-25T13:41:31.567Z,5.40
2018-12-25T13:44:03.296Z,6.03
2018-12-25T13:46:32.568Z,4.00
2018-12-25T13:49:01.900Z,2.50
2018-12-25T13:51:31.212Z,3.73
2018-12-25T13:54:00.570Z,4.40
2018-12-25T13:56:29.863Z,3.50
2018-12-25T13:58:59.150Z,4.00
2018-12-25T14:01:29.462Z,3.43
2018-12-25T14:03:58.740Z,3.77
2018-12-25T14:06:28.026Z,3.83
2018-12-25T14:08:57.427Z,5.83
2018-12-25T14:11:27.035Z,3.90
2018-12-25T14:13:56.311Z,3.97
2018-12-25T14:16:25.666Z,3.33
2018-12-25T14:18:55.000Z,3.43
2018-12-25T14:21:24.277Z,3.60
2018-12-25T14:23:53.622Z,4.47
2018-12-25T14:26:22.891Z,3.27
2018-12-25T14:28:52.193Z,4.00
2018-12-25T14:31:21.521Z,3.63
2018-12-25T14:33:50.824Z,4.97
2018-12-25T14:36:20.086Z,3.15
2018-12-25T14:38:49.441Z,5.17
2018-12-25T14:41:18.770Z,3.10
2018-12-25T14:43:48.047Z,5.23
2018-12-25T14:46:17.392Z,3.33
2018-12-25T14:48:47.128Z,4.53
2018-12-25T14:51:17.081Z,4.67
2018-12-25T14:53:47.615Z,3.37
2018-12-25T14:56:17.223Z,3.47
2018-12-25T14:58:47.153Z,3.17
2018-12-25T15:01:16.452Z,3.80
2018-12-25T15:03:45.731Z,4.50
2018-12-25T15:06:15.096Z,4.07
2018-12-25T15:08:45.473Z,5.43
2018-12-25T15:11:14.820Z,7.47
2018-12-25T15:13:45.897Z,5.03
2018-12-25T15:16:15.716Z,5.10
2018-12-25T15:18:45.035Z,4.70
2018-12-25T15:21:14.513Z,3.17
2018-12-25T15:23:43.831Z,3.50
2018-12-25T15:26:13.154Z,3.57
2018-12-25T15:28:42.493Z,5.63
2018-12-25T15:31:11.775Z,3.63
2018-12-25T15:33:41.053Z,6.93
2018-12-25T15:36:10.758Z,6.20
2018-12-25T15:38:40.075Z,6.13
2018-12-25T15:41:09.364Z,6.67
2018-12-25T15:43:38.713Z,5.57
2018-12-25T15:46:08.030Z,6.63
2018-12-25T15:48:37.359Z,3.80
2018-12-25T15:51:06.733Z,5.20
2018-12-25T15:53:37.052Z,7.77
2018-12-25T15:56:06.731Z,5.00
2018-12-25T15:58:36.072Z,6.67
2018-12-25T16:01:05.442Z,4.97
2018-12-25T16:03:34.726Z,8.67
2018-12-25T16:06:04.192Z,10.00
2018-12-25T16:08:34.248Z,6.70
2018-12-25T16:11:03.516Z,6.17
2018-12-25T16:13:32.786Z,6.10
2018-12-25T16:16:03.057Z,6.73
2018-12-25T16:18:32.436Z,6.30
2018-12-25T16:21:01.708Z,8.30
2018-12-25T16:23:31.283Z,10.77
2018-12-25T16:26:00.565Z,15.27
2018-12-25T16:28:29.904Z,8.27
2018-12-25T16:30:59.176Z,10.37
2018-12-25T16:33:28.453Z,8.87
2018-12-25T16:35:57.799Z,8.23
2018-12-25T16:38:27.064Z,6.93
2018-12-25T16:40:56.348Z,7.73
2018-12-25T16:43:26.027Z,7.60
2018-12-25T16:45:55.309Z,7.30
2018-12-25T16:48:24.598Z,7.60
2018-12-25T16:50:53.928Z,7.97
2018-12-25T16:53:23.215Z,6.50
2018-12-25T16:55:52.488Z,8.60
2018-12-25T16:58:21.846Z,6.80
2018-12-25T17:00:51.136Z,7.17
2018-12-25T17:03:20.413Z,7.57
2018-12-25T17:05:49.740Z,9.87
2018-12-25T17:08:19.083Z,9.13
2018-12-25T17:10:48.362Z,7.60
2018-12-25T17:13:17.752Z,9.03
2018-12-25T17:15:47.029Z,8.00
2018-12-25T17:18:16.311Z,8.83
2018-12-25T17:20:45.654Z,9.03
2018-12-25T17:23:14.941Z,8.77
2018-12-25T17:25:44.225Z,9.07
2018-12-25T17:28:13.630Z,10.10
2018-12-25T17:30:42.959Z,10.13
2018-12-25T17:33:12.238Z,9.30
2018-12-25T17:35:41.571Z,11.53
2018-12-25T17:38:11.904Z,11.23
2018-12-25T17:40:41.296Z,9.07
2018-12-25T17:43:10.585Z,9.10
2018-12-25T17:45:39.937Z,10.60
2018-12-25T17:48:09.225Z,9.13
2018-12-25T17:50:38.516Z,8.37
2018-12-25T17:53:07.921Z,10.20
2018-12-25T17:55:38.342Z,12.40
2018-12-25T17:58:07.625Z,8.83
2018-12-25T18:00:42.955Z,10.07
2018-12-25T18:03:12.801Z,9.53
2018-12-25T18:05:42.840Z,13.30
2018-12-25T18:08:12.173Z,12.90
2018-12-25T18:10:41.478Z,11.47
2018-12-25T18:13:10.899Z,8.90
2018-12-25T18:15:40.217Z,9.47
2018-12-25T18:18:10.577Z,10.17
2018-12-25T18:20:39.953Z,9.90
2018-12-25T18:23:09.298Z,11.00
2018-12-25T18:25:38.718Z,11.27
2018-12-25T18:28:08.056Z,10.93
2018-12-25T18:30:37.378Z,10.37
2018-12-25T18:33:07.738Z,9.97
2018-12-25T18:35:37.096Z,10.47
2018-12-25T18:38:06.390Z,10.77
2018-12-25T18:40:35.667Z,10.93
2018-12-25T18:43:05.005Z,10.70
2018-12-25T18:45:34.285Z,10.30
2018-12-25T18:48:10.661Z,11.83
2018-12-25T18:50:39.944Z,11.63
2018-12-25T18:53:09.235Z,10.80
2018-12-25T18:55:40.258Z,10.10
2018-12-25T18:58:09.723Z,9.93
2018-12-25T19:00:39.077Z,11.93
2018-12-25T19:03:08.412Z,10.40
2018-12-25T19:05:38.217Z,14.60
2018-12-25T19:08:07.518Z,11.07
2018-12-25T19:10:36.797Z,10.33
2018-12-25T19:13:06.738Z,9.30
2018-12-25T19:15:36.131Z,10.27
2018-12-25T19:18:05.500Z,13.90
2018-12-25T19:20:34.848Z,11.43
2018-12-25T19:23:04.143Z,10.00
2018-12-25T19:25:33.749Z,9.90
2018-12-25T19:28:03.106Z,16.03
2018-12-25T19:30:32.375Z,9.70
2018-12-25T19:33:01.659Z,10.23
2018-12-25T19:35:31.017Z,9.60
2018-12-25T19:38:00.371Z,10.57
2018-12-25T19:40:31.397Z,11.40
2018-12-25T19:43:00.654Z,9.73
2018-12-25T19:45:31.366Z,9.87
2018-12-25T19:48:00.660Z,10.07
2018-12-25T19:50:30.072Z,10.23
2018-12-25T19:52:59.409Z,9.77
2018-12-25T19:55:28.710Z,10.43
2018-12-25T19:57:58.002Z,10.20
2018-12-25T20:00:27.353Z,10.47
2018-12-25T20:02:59.571Z,11.10
2018-12-25T20:05:32.169Z,11.63
2018-12-25T20:08:31.460Z,10.27
2018-12-25T20:11:06.589Z,11.17
2018-12-25T20:14:12.402Z,11.47
2018-12-25T20:16:49.149Z,10.97
2018-12-25T20:19:27.715Z,11.33
2018-12-25T20:22:05.945Z,11.17
2018-12-25T20:24:52.629Z,10.63
2018-12-25T20:27:41.008Z,11.33
2018-12-25T20:30:29.840Z,12.40
2018-12-25T20:33:17.029Z,11.70
2018-12-25T20:36:09.325Z,12.80
2018-12-25T20:38:56.806Z,13.20
2018-12-25T20:41:45.747Z,12.40
2018-12-25T20:44:30.448Z,13.00
2018-12-25T20:47:38.246Z,14.00
2018-12-25T20:50:32.253Z,13.33
2018-12-25T20:53:19.879Z,12.23
2018-12-25T20:56:04.364Z,15.10
2018-12-25T20:58:48.704Z,13.53
2018-12-25T21:01:33.465Z,13.97
2018-12-25T21:04:22.447Z,14.83
2018-12-25T21:07:27.321Z,14.40
2018-12-25T21:10:05.637Z,13.60
2018-12-25T21:12:53.266Z,15.17
2018-12-25T21:15:48.146Z,14.30
2018-12-25T21:18:39.192Z,12.40
2018-12-25T21:21:17.932Z,13.17
2018-12-25T21:24:24.056Z,13.87
2018-12-25T21:27:30.264Z,14.03
2018-12-25T21:30:04.204Z,13.43
2018-12-25T21:32:34.006Z,12.83
2018-12-25T21:35:13.778Z,12.77
2018-12-25T21:37:43.201Z,17.17
2018-12-25T21:40:12.510Z,16.17
2018-12-25T21:42:41.924Z,12.70
2018-12-25T21:45:11.842Z,13.20
2018-12-25T21:47:41.428Z,14.40
2018-12-25T21:50:12.809Z,14.10
2018-12-25T21:52:42.092Z,15.23
2018-12-25T21:55:18.521Z,13.57
2018-12-25T21:57:42.354Z,14.30
2018-12-25T22:00:13.150Z,12.13
2018-12-25T22:02:42.427Z,13.47
2018-12-25T22:05:11.865Z,11.97
2018-12-25T22:07:41.507Z,11.85
2018-12-25T22:10:10.834Z,11.90
2018-12-25T22:12:40.199Z,12.30
2018-12-25T22:15:09.599Z,12.20
2018-12-25T22:17:38.864Z,12.57
2018-12-25T22:20:17.184Z,11.57
2018-12-25T22:22:46.562Z,12.57
2018-12-25T22:25:16.736Z,13.77
2018-12-25T22:27:46.155Z,12.33
2018-12-25T22:30:15.391Z,11.97
2018-12-25T22:32:44.679Z,13.70
2018-12-25T22:35:14.127Z,13.40
2018-12-25T22:37:43.484Z,10.57
2018-12-25T22:40:12.791Z,12.63
2018-12-25T22:42:42.182Z,12.53
2018-12-25T22:45:11.525Z,13.77
2018-12-25T22:47:40.791Z,12.83
2018-12-25T22:50:10.135Z,12.37
2018-12-25T22:52:39.415Z,11.10
2018-12-25T22:55:09.320Z,10.87
2018-12-25T22:57:38.639Z,13.97
2018-12-25T23:00:11.618Z,11.90
2018-12-25T23:02:40.984Z,11.13
2018-12-25T23:05:10.266Z,13.43
2018-12-25T23:07:39.579Z,13.13
2018-12-25T23:10:08.894Z,12.20
2018-12-25T23:12:38.177Z,13.87
